Time;durP1;ratioP1;P1;durP2;ratioP2;P2;SDS_P1;SDS_P2;PMS_P1;PMS_P2;Temp;Humidity;BMP_temperature;BMP_pressure;BME280_temperature;BME280_humidity;BME280_pressure;Samples;Min_cycle;Max_cycle;Signal;HPM_P1;HPM_P2
2023/08/24 00:00:38;;;;;;;11.98;5.05;;;18.70;95.20;;;;;;6249838;23;20316;-76
2023/08/24 00:03:04;;;;;;;8.10;5.18;;;18.70;95.60;;;;;;6223229;23;20004;-77
2023/08/24 00:05:32;;;;;;;10.85;5.80;;;18.70;95.60;;;;;;6247760;23;20004;-77
2023/08/24 00:07:57;;;;;;;9.13;5.15;;;18.60;96.00;;;;;;6249610;23;20000;-77
2023/08/24 00:10:23;;;;;;;9.07;5.50;;;18.60;96.40;;;;;;6249716;23;20027;-77
2023/08/24 00:12:49;;;;;;;9.10;5.65;;;18.50;96.70;;;;;;6222976;23;20008;-76
2023/08/24 00:15:14;;;;;;;11.00;5.78;;;18.40;96.80;;;;;;6249226;23;20075;-76
2023/08/24 00:17:40;;;;;;;8.63;5.63;;;18.30;96.90;;;;;;6250038;23;20004;-76
2023/08/24 00:20:10;;;;;;;12.15;5.85;;;18.20;96.90;;;;;;6250341;23;20007;-76
2023/08/24 00:22:37;;;;;;;7.47;5.40;;;18.10;97.00;;;;;;6251648;23;20352;-76
2023/08/24 00:25:02;;;;;;;10.40;5.50;;;18.10;97.00;;;;;;6251273;23;20004;-76
2023/08/24 00:27:28;;;;;;;8.73;5.43;;;18.20;96.80;;;;;;6251737;23;20460;-76
2023/08/24 00:29:53;;;;;;;12.02;5.47;;;18.20;96.90;;;;;;6251736;23;20008;-76
2023/08/24 00:32:19;;;;;;;10.50;5.95;;;18.20;97.10;;;;;;6251652;23;20074;-76
2023/08/24 00:34:45;;;;;;;10.90;6.22;;;18.20;97.00;;;;;;6249757;23;20317;-77
2023/08/24 00:37:11;;;;;;;9.20;5.63;;;18.10;97.10;;;;;;6224542;23;20004;-76
2023/08/24 00:39:37;;;;;;;7.93;5.72;;;18.20;97.20;;;;;;6224621;23;20362;-76
2023/08/24 00:42:03;;;;;;;8.43;5.70;;;18.10;97.20;;;;;;6250354;23;20079;-76
2023/08/24 00:44:28;;;;;;;9.68;6.03;;;18.10;97.10;;;;;;6250607;23;20432;-76
2023/08/24 00:46:54;;;;;;;7.95;5.13;;;18.20;97.10;;;;;;6250886;23;20067;-76
2023/08/24 00:49:21;;;;;;;10.65;5.90;;;18.10;97.30;;;;;;6249707;23;20004;-76
2023/08/24 00:51:46;;;;;;;9.20;5.88;;;18.10;97.20;;;;;;6250799;23;20004;-76
2023/08/24 00:54:12;;;;;;;12.05;6.70;;;18.10;97.10;;;;;;6223938;23;20004;-76
2023/08/24 00:56:37;;;;;;;8.43;5.68;;;18.10;97.00;;;;;;6250250;23;19996;-76
2023/08/24 00:59:03;;;;;;;10.05;6.03;;;18.00;97.20;;;;;;6250251;23;20008;-76
2023/08/24 01:01:29;;;;;;;7.45;5.60;;;17.90;97.30;;;;;;6250630;23;20007;-75
2023/08/24 01:03:54;;;;;;;10.88;5.97;;;18.00;97.30;;;;;;6249346;23;20358;-75
2023/08/24 01:06:20;;;;;;;9.70;5.75;;;17.90;97.10;;;;;;6249820;23;20008;-75
2023/08/24 01:08:45;;;;;;;8.40;4.97;;;18.00;97.20;;;;;;6250619;23;20004;-75
2023/08/24 01:11:43;;;;;;;7.35;5.07;;;18.10;97.50;;;;;;6224826;23;20384;-75
2023/08/24 01:14:20;;;;;;;10.10;5.80;;;18.40;97.30;;;;;;6250479;23;20011;-76
2023/08/24 01:16:48;;;;;;;8.07;5.95;;;18.50;97.20;;;;;;6250532;23;20050;-76
2023/08/24 01:19:24;;;;;;;9.43;5.82;;;18.40;97.20;;;;;;6249222;23;20007;-76
2023/08/24 01:21:52;;;;;;;8.93;5.50;;;18.30;97.20;;;;;;6224361;23;20004;-76
2023/08/24 01:24:32;;;;;;;11.25;5.57;;;18.20;97.20;;;;;;6250725;23;20358;-76
2023/08/24 01:26:58;;;;;;;9.35;6.20;;;18.20;97.20;;;;;;6250504;23;20039;-76
2023/08/24 01:29:25;;;;;;;11.82;6.25;;;18.20;97.30;;;;;;6250150;23;20074;-76
2023/08/24 01:31:51;;;;;;;10.77;6.85;;;18.20;97.30;;;;;;6250108;23;20007;-76
2023/08/24 01:34:16;;;;;;;10.95;6.07;;;18.10;97.20;;;;;;6249111;23;20024;-76
2023/08/24 01:36:44;;;;;;;10.73;6.20;;;18.10;97.10;;;;;;6251040;23;20050;-76
2023/08/24 01:39:45;;;;;;;9.82;6.22;;;18.00;97.10;;;;;;6223863;23;20006;-76
2023/08/24 01:42:18;;;;;;;8.20;5.80;;;18.00;97.30;;;;;;6204398;23;20031;-76
2023/08/24 01:44:50;;;;;;;9.52;6.55;;;18.00;97.30;;;;;;6249695;23;20113;-75
2023/08/24 01:47:18;;;;;;;8.90;6.10;;;18.10;97.10;;;;;;6250112;23;20000;-76
2023/08/24 01:49:44;;;;;;;9.27;5.45;;;18.10;97.20;;;;;;6249346;23;20015;-76
2023/08/24 01:52:10;;;;;;;12.18;6.05;;;18.10;97.30;;;;;;6249987;23;20008;-76
2023/08/24 01:54:35;;;;;;;12.25;5.82;;;18.10;97.40;;;;;;6250112;23;20086;-77
2023/08/24 01:57:01;;;;;;;8.57;5.80;;;18.00;97.50;;;;;;6222704;23;20073;-76
2023/08/24 01:59:27;;;;;;;11.45;6.20;;;18.00;97.40;;;;;;6250547;23;20289;-76
2023/08/24 02:01:52;;;;;;;7.43;6.00;;;18.00;96.90;;;;;;6249495;23;20027;-76
2023/08/24 02:04:18;;;;;;;10.32;6.22;;;17.90;97.00;;;;;;6221629;23;20145;-76
2023/08/24 02:06:43;;;;;;;11.63;6.50;;;17.90;97.10;;;;;;6224472;23;20266;-76
2023/08/24 02:09:09;;;;;;;9.75;6.82;;;17.80;97.10;;;;;;6250682;23;20086;-76
2023/08/24 02:11:34;;;;;;;9.90;6.25;;;17.70;97.20;;;;;;6223921;23;20001;-75
2023/08/24 02:14:00;;;;;;;8.18;6.45;;;17.70;96.90;;;;;;6250768;23;20012;-76
2023/08/24 02:16:25;;;;;;;9.30;6.68;;;17.70;97.20;;;;;;6224146;23;20000;-76
2023/08/24 02:18:51;;;;;;;8.23;5.68;;;17.70;97.30;;;;;;6249418;23;20047;-76
2023/08/24 02:21:16;;;;;;;7.75;6.13;;;17.70;97.30;;;;;;6224091;23;20004;-76
2023/08/24 02:23:42;;;;;;;8.15;6.20;;;17.80;97.20;;;;;;6250224;23;20000;-76
2023/08/24 02:26:08;;;;;;;8.18;5.95;;;17.80;97.50;;;;;;6224087;23;20018;-76
2023/08/24 02:28:34;;;;;;;12.63;6.40;;;17.90;97.40;;;;;;6250532;23;20000;-76
2023/08/24 02:31:03;;;;;;;8.88;6.22;;;17.90;97.30;;;;;;6250105;23;20006;-76
2023/08/24 02:33:29;;;;;;;8.20;5.70;;;17.90;97.30;;;;;;6248330;23;20007;-76
2023/08/24 02:35:55;;;;;;;13.55;6.10;;;18.00;97.80;;;;;;6249924;23;20313;-76
2023/08/24 02:38:21;;;;;;;10.02;6.28;;;17.90;97.20;;;;;;6249666;23;20027;-76
2023/08/24 02:40:47;;;;;;;9.15;5.70;;;17.90;97.30;;;;;;6248024;23;20024;-76
2023/08/24 02:43:12;;;;;;;10.10;5.95;;;17.90;97.60;;;;;;6249794;23;20023;-76
2023/08/24 02:45:38;;;;;;;12.55;5.13;;;18.00;97.40;;;;;;6223198;23;20012;-77
2023/08/24 02:48:04;;;;;;;10.55;5.68;;;18.10;98.00;;;;;;6248879;23;20004;-77
2023/08/24 02:50:30;;;;;;;9.48;5.72;;;18.20;97.60;;;;;;6222254;23;20012;-77
2023/08/24 02:52:57;;;;;;;9.32;5.68;;;18.30;97.20;;;;;;6249869;23;20011;-77
2023/08/24 02:55:24;;;;;;;11.00;5.70;;;18.30;97.40;;;;;;6249534;23;20004;-76
2023/08/24 02:57:49;;;;;;;9.60;5.25;;;18.20;97.50;;;;;;6249096;23;20281;-77
2023/08/24 03:00:15;;;;;;;11.90;5.85;;;18.20;97.70;;;;;;6222913;23;20000;-77
2023/08/24 03:02:40;;;;;;;10.68;6.13;;;18.20;97.40;;;;;;6249578;23;20405;-76
2023/08/24 03:05:06;;;;;;;9.40;6.43;;;18.10;97.40;;;;;;6247445;23;20038;-76
2023/08/24 03:07:32;;;;;;;20.30;6.47;;;18.10;97.60;;;;;;6249792;23;20007;-76
2023/08/24 03:09:57;;;;;;;11.70;5.85;;;18.10;97.40;;;;;;6250009;23;20369;-76
2023/08/24 03:12:23;;;;;;;11.27;6.70;;;18.10;97.40;;;;;;6249070;23;20114;-76
2023/08/24 03:14:52;;;;;;;11.02;6.18;;;18.10;97.50;;;;;;6249266;23;20001;-77
2023/08/24 03:17:18;;;;;;;11.43;6.35;;;18.10;97.50;;;;;;6249308;23;20058;-76
2023/08/24 03:19:44;;;;;;;10.70;6.65;;;18.10;97.40;;;;;;6247617;23;20000;-76
2023/08/24 03:22:09;;;;;;;10.15;6.60;;;18.10;97.40;;;;;;6222107;23;20369;-77
2023/08/24 03:24:35;;;;;;;9.55;7.15;;;18.10;97.40;;;;;;6248286;23;20066;-77
2023/08/24 03:27:00;;;;;;;11.63;7.35;;;18.00;97.40;;;;;;6246510;23;20050;-76
2023/08/24 03:29:26;;;;;;;15.88;7.82;;;18.00;97.30;;;;;;6249496;23;20264;-77
2023/08/24 03:31:53;;;;;;;10.60;8.10;;;18.10;97.40;;;;;;6248365;23;20004;-77
2023/08/24 03:34:20;;;;;;;10.40;7.45;;;18.10;97.40;;;;;;6247695;23;20309;-77
2023/08/24 03:36:47;;;;;;;10.40;7.30;;;18.20;97.50;;;;;;6249140;23;20401;-77
2023/08/24 03:39:13;;;;;;;11.90;7.40;;;18.10;97.40;;;;;;6249266;23;20003;-77
2023/08/24 03:41:39;;;;;;;12.02;7.60;;;18.10;97.40;;;;;;6222986;23;20266;-76
2023/08/24 03:44:04;;;;;;;10.77;7.50;;;18.10;97.30;;;;;;6248404;23;20007;-76
2023/08/24 03:46:31;;;;;;;11.38;7.65;;;18.00;97.30;;;;;;6248964;23;20024;-77
2023/08/24 03:48:57;;;;;;;10.93;7.60;;;18.00;97.20;;;;;;6246104;23;20366;-77
2023/08/24 03:51:22;;;;;;;11.43;7.18;;;18.00;97.20;;;;;;6249393;23;20008;-77
2023/08/24 03:53:50;;;;;;;12.73;8.05;;;18.00;97.10;;;;;;6248950;23;20054;-77
2023/08/24 03:56:16;;;;;;;12.65;7.63;;;18.00;96.80;;;;;;6249140;23;20295;-75
2023/08/24 03:58:42;;;;;;;14.93;7.80;;;17.90;96.70;;;;;;6248967;23;20134;-75
2023/08/24 04:01:10;;;;;;;11.35;7.50;;;17.80;96.70;;;;;;6248658;23;19996;-75
2023/08/24 04:03:36;;;;;;;11.68;7.45;;;17.80;96.70;;;;;;6247094;23;20003;-75
2023/08/24 04:06:02;;;;;;;10.80;7.03;;;17.80;96.60;;;;;;6248118;23;20099;-75
2023/08/24 04:08:27;;;;;;;11.95;7.03;;;17.80;96.60;;;;;;6248256;23;20731;-76
2023/08/24 04:10:53;;;;;;;11.00;6.85;;;17.90;96.60;;;;;;6249300;23;20004;-76
2023/08/24 04:13:18;;;;;;;11.27;7.45;;;17.90;96.70;;;;;;6248296;23;20000;-76
2023/08/24 04:15:44;;;;;;;11.00;7.78;;;18.00;96.60;;;;;;6249312;23;20007;-76
2023/08/24 04:18:11;;;;;;;9.80;7.28;;;17.90;96.60;;;;;;6248418;23;20019;-76
2023/08/24 04:20:36;;;;;;;10.10;7.50;;;17.90;96.60;;;;;;6249995;23;20047;-76
2023/08/24 04:23:02;;;;;;;10.68;6.65;;;17.90;96.70;;;;;;6249522;23;20277;-76
2023/08/24 04:25:29;;;;;;;11.05;6.97;;;17.90;96.40;;;;;;6249818;23;20356;-76
2023/08/24 04:27:54;;;;;;;13.77;6.93;;;17.90;96.70;;;;;;6249755;23;20091;-76
2023/08/24 04:30:21;;;;;;;10.77;6.43;;;17.90;96.30;;;;;;6249733;23;20000;-76
2023/08/24 04:32:47;;;;;;;9.55;6.57;;;17.90;96.30;;;;;;6249221;23;20085;-76
2023/08/24 04:35:12;;;;;;;10.65;6.55;;;18.00;97.10;;;;;;6248257;23;19996;-76
2023/08/24 04:37:38;;;;;;;10.10;5.70;;;18.10;97.70;;;;;;6249735;23;20058;-76
2023/08/24 04:40:07;;;;;;;9.30;5.22;;;18.40;97.80;;;;;;6223249;23;20009;-75
2023/08/24 04:42:33;;;;;;;10.13;5.47;;;18.80;96.70;;;;;;6248926;23;20030;-76
2023/08/24 04:44:58;;;;;;;7.85;5.63;;;19.10;96.10;;;;;;6249214;23;20008;-76
2023/08/24 04:47:24;;;;;;;9.32;4.68;;;19.60;94.40;;;;;;6222781;23;20008;-76
2023/08/24 04:49:49;;;;;;;11.27;4.82;;;19.80;94.00;;;;;;6247967;23;20003;-76
2023/08/24 04:52:15;;;;;;;11.13;5.10;;;20.00;93.00;;;;;;6249472;23;20000;-76
2023/08/24 04:54:43;;;;;;;10.18;5.03;;;20.30;91.80;;;;;;6249151;23;20000;-76
2023/08/24 04:57:08;;;;;;;7.45;4.68;;;20.70;90.20;;;;;;6248778;23;20009;-75
2023/08/24 04:59:34;;;;;;;10.07;4.90;;;21.00;89.40;;;;;;6249398;23;20274;-76
2023/08/24 05:02:00;;;;;;;11.07;4.60;;;21.20;88.40;;;;;;6249375;23;20089;-75
2023/08/24 05:04:25;;;;;;;8.80;4.68;;;21.40;87.90;;;;;;6249605;23;20004;-76
2023/08/24 05:06:51;;;;;;;8.07;4.55;;;21.50;87.90;;;;;;6250974;23;20361;-75
2023/08/24 05:09:16;;;;;;;12.90;4.40;;;21.60;87.70;;;;;;6251027;23;20054;-76
2023/08/24 05:11:43;;;;;;;8.38;4.70;;;21.80;87.00;;;;;;6251279;23;20006;-76
2023/08/24 05:14:09;;;;;;;10.13;4.20;;;21.90;86.80;;;;;;6251369;23;20004;-76
2023/08/24 05:16:34;;;;;;;11.60;4.68;;;22.00;86.70;;;;;;6251198;23;20032;-76
2023/08/24 05:19:00;;;;;;;10.02;4.35;;;22.20;86.50;;;;;;6249470;23;20253;-76
2023/08/24 05:21:25;;;;;;;10.48;4.43;;;22.40;86.20;;;;;;6251564;23;20010;-76
2023/08/24 05:23:51;;;;;;;8.13;4.53;;;22.40;86.10;;;;;;6251460;23;20004;-76
2023/08/24 05:26:22;;;;;;;9.18;4.40;;;22.60;85.90;;;;;;6251355;23;20015;-76
2023/08/24 05:28:48;;;;;;;9.13;4.40;;;22.70;85.70;;;;;;6250936;23;20007;-76
2023/08/24 05:31:13;;;;;;;8.43;4.60;;;22.80;86.00;;;;;;6250852;23;20012;-76
2023/08/24 05:33:39;;;;;;;11.55;4.65;;;22.90;85.90;;;;;;6249577;23;20001;-76
2023/08/24 05:36:07;;;;;;;9.95;4.38;;;23.00;85.60;;;;;;6251175;23;20350;-76
2023/08/24 05:38:32;;;;;;;9.85;4.63;;;23.00;85.30;;;;;;6250287;23;20031;-76
2023/08/24 05:40:59;;;;;;;10.73;4.70;;;23.20;85.30;;;;;;6251092;23;20005;-76
2023/08/24 05:43:25;;;;;;;8.27;4.35;;;23.30;84.80;;;;;;6251119;23;20004;-76
2023/08/24 05:45:50;;;;;;;10.45;4.43;;;23.30;84.90;;;;;;6250936;23;20007;-76
2023/08/24 05:48:16;;;;;;;12.52;4.10;;;23.30;84.80;;;;;;6249082;23;20011;-76
2023/08/24 05:50:46;;;;;;;8.15;4.57;;;23.40;84.80;;;;;;6251117;23;20392;-76
2023/08/24 05:53:11;;;;;;;9.80;4.55;;;23.50;84.50;;;;;;6250881;23;20004;-76
2023/08/24 05:55:38;;;;;;;9.98;4.40;;;23.50;84.60;;;;;;6250978;23;20001;-76
2023/08/24 05:58:03;;;;;;;11.98;5.13;;;23.60;84.50;;;;;;6250188;23;20016;-76
2023/08/24 06:00:29;;;;;;;10.45;5.00;;;23.80;84.40;;;;;;6250304;23;20412;-76
2023/08/24 06:02:55;;;;;;;8.02;4.22;;;23.90;83.90;;;;;;6247721;23;20004;-76
2023/08/24 06:05:20;;;;;;;8.27;4.43;;;23.90;84.20;;;;;;6247162;23;20004;-76
2023/08/24 06:07:48;;;;;;;8.70;4.78;;;23.90;84.30;;;;;;6250709;23;20000;-76
2023/08/24 06:10:13;;;;;;;10.98;5.10;;;24.10;83.60;;;;;;6250825;23;20004;-76
2023/08/24 06:12:39;;;;;;;10.15;4.43;;;24.10;83.80;;;;;;6250296;23;20004;-76
2023/08/24 06:15:07;;;;;;;10.25;4.72;;;24.20;83.30;;;;;;6250117;23;20000;-76
2023/08/24 06:17:35;;;;;;;7.28;4.43;;;24.20;83.20;;;;;;6250301;23;20071;-76
2023/08/24 06:20:02;;;;;;;35.70;6.70;;;24.20;84.10;;;;;;6249151;23;20004;-76
2023/08/24 06:22:27;;;;;;;22.25;5.53;;;24.20;83.60;;;;;;6250893;23;20038;-76
2023/08/24 06:24:54;;;;;;;10.77;4.40;;;24.10;83.90;;;;;;6250259;23;20362;-76
2023/08/24 06:27:20;;;;;;;26.92;5.32;;;24.10;83.90;;;;;;6224130;23;20019;-76
2023/08/24 06:29:45;;;;;;;9.95;5.03;;;24.20;84.40;;;;;;6248647;23;20008;-76
2023/08/24 06:32:11;;;;;;;11.40;4.63;;;24.20;84.00;;;;;;6248731;23;20036;-76
2023/08/24 06:34:36;;;;;;;11.57;4.68;;;24.30;83.50;;;;;;6247984;23;20000;-76
2023/08/24 06:37:03;;;;;;;7.93;5.03;;;24.30;84.10;;;;;;6249442;23;20007;-76
2023/08/24 06:39:29;;;;;;;11.98;4.80;;;24.30;84.20;;;;;;6250298;23;20011;-76
2023/08/24 06:41:54;;;;;;;11.85;4.88;;;24.40;84.30;;;;;;6250626;23;20004;-76
2023/08/24 06:44:20;;;;;;;10.38;5.10;;;24.60;83.70;;;;;;6250050;23;20004;-76
2023/08/24 06:46:46;;;;;;;12.85;7.75;;;24.80;83.40;;;;;;6248875;23;20031;-76
2023/08/24 06:49:12;;;;;;;10.82;6.65;;;24.90;83.80;;;;;;6246910;23;20422;-75
2023/08/24 06:51:37;;;;;;;11.70;7.93;;;25.10;83.70;;;;;;6250178;23;20047;-75
2023/08/24 06:54:03;;;;;;;11.75;5.53;;;25.10;83.30;;;;;;6250433;23;20086;-76
2023/08/24 06:56:28;;;;;;;12.85;4.57;;;25.10;83.30;;;;;;6249272;23;20083;-76
2023/08/24 06:58:54;;;;;;;10.35;5.10;;;25.10;83.10;;;;;;6250067;23;20028;-76
2023/08/24 07:01:20;;;;;;;9.88;4.57;;;24.70;83.30;;;;;;6250106;23;20289;-76
2023/08/24 07:03:45;;;;;;;9.05;5.00;;;24.50;84.70;;;;;;6248322;23;20091;-77
2023/08/24 07:06:14;;;;;;;9.15;5.05;;;24.40;85.50;;;;;;6248642;23;20034;-77
2023/08/24 07:08:39;;;;;;;11.45;6.65;;;24.20;85.80;;;;;;6250191;23;20006;-77
2023/08/24 07:11:05;;;;;;;8.00;5.30;;;24.20;87.20;;;;;;6246641;23;20012;-77
2023/08/24 07:13:30;;;;;;;22.15;5.45;;;24.30;86.00;;;;;;6249013;23;20011;-76
2023/08/24 07:15:56;;;;;;;7.75;5.40;;;24.40;86.90;;;;;;6249144;23;20003;-77
2023/08/24 07:18:22;;;;;;;9.68;5.45;;;24.30;85.70;;;;;;6247818;23;19996;-76
2023/08/24 07:20:47;;;;;;;11.30;5.18;;;24.30;85.70;;;;;;6249739;23;20004;-77
2023/08/24 07:23:13;;;;;;;12.00;6.03;;;24.10;85.80;;;;;;6250220;23;20008;-77
2023/08/24 07:25:38;;;;;;;10.88;6.35;;;23.90;85.60;;;;;;6250179;23;20083;-76
2023/08/24 07:28:04;;;;;;;10.93;5.95;;;23.70;86.50;;;;;;6249441;23;20000;-76
2023/08/24 07:30:31;;;;;;;8.75;6.35;;;23.40;87.20;;;;;;6249144;23;20026;-76
2023/08/24 07:32:56;;;;;;;13.00;5.97;;;23.40;87.60;;;;;;6249766;23;20366;-76
2023/08/24 07:35:24;;;;;;;9.60;6.10;;;23.50;87.80;;;;;;6249222;23;19997;-76
2023/08/24 07:37:51;;;;;;;11.13;6.28;;;23.50;87.90;;;;;;6249307;23;20050;-76
2023/08/24 07:40:16;;;;;;;10.77;6.53;;;23.70;87.40;;;;;;6250325;23;20075;-76
2023/08/24 07:42:50;;;;;;;13.73;6.30;;;23.90;86.50;;;;;;6250161;23;20035;-75
2023/08/24 07:45:16;;;;;;;9.23;5.78;;;24.00;85.90;;;;;;6250127;23;20018;-75
2023/08/24 07:47:42;;;;;;;9.57;5.80;;;23.90;86.30;;;;;;6248210;23;20302;-75
2023/08/24 07:50:10;;;;;;;12.18;6.78;;;23.90;86.80;;;;;;6248694;23;20011;-76
2023/08/24 07:52:37;;;;;;;14.00;7.07;;;23.40;87.10;;;;;;6250055;23;20008;-75
2023/08/24 07:55:04;;;;;;;12.05;7.32;;;22.60;89.30;;;;;;6249636;23;20043;-75
2023/08/24 07:57:31;;;;;;;13.10;7.95;;;22.40;89.80;;;;;;6249744;23;20019;-75
2023/08/24 07:59:57;;;;;;;10.93;7.13;;;21.90;90.70;;;;;;6249655;23;20000;-75
2023/08/24 08:02:22;;;;;;;12.93;7.00;;;21.60;92.50;;;;;;6250363;23;20007;-76
2023/08/24 08:04:48;;;;;;;11.05;6.30;;;22.50;91.20;;;;;;6221633;23;20005;-76
2023/08/24 08:07:14;;;;;;;12.32;5.88;;;23.70;87.60;;;;;;6223421;23;20012;-76
2023/08/24 08:09:39;;;;;;;11.07;5.90;;;24.80;85.70;;;;;;6249619;23;20000;-76
2023/08/24 08:12:05;;;;;;;10.45;5.38;;;25.60;82.80;;;;;;6249770;23;20000;-76
2023/08/24 08:14:31;;;;;;;13.80;5.18;;;26.60;80.70;;;;;;6249695;23;20011;-76
2023/08/24 08:16:57;;;;;;;9.45;5.25;;;27.30;78.20;;;;;;6249932;23;20358;-76
2023/08/24 08:19:25;;;;;;;8.52;4.90;;;27.90;77.00;;;;;;6247840;23;20023;-76
2023/08/24 08:21:51;;;;;;;8.70;5.18;;;28.10;76.10;;;;;;6249887;23;20024;-76
2023/08/24 08:24:16;;;;;;;9.77;5.30;;;28.60;75.40;;;;;;6249918;23;20001;-76
2023/08/24 08:26:42;;;;;;;9.93;4.63;;;28.90;74.90;;;;;;6249715;23;20358;-76
2023/08/24 08:29:07;;;;;;;7.47;4.28;;;29.30;73.90;;;;;;6249492;23;20008;-76
2023/08/24 08:31:33;;;;;;;11.95;4.93;;;29.70;72.70;;;;;;6248973;23;20035;-76
2023/08/24 08:33:58;;;;;;;9.65;4.60;;;29.80;72.20;;;;;;6248293;23;20007;-76
2023/08/24 08:36:24;;;;;;;7.65;4.22;;;30.20;72.00;;;;;;6249669;23;20000;-76
2023/08/24 08:38:50;;;;;;;10.23;4.43;;;30.50;71.70;;;;;;6247012;23;20007;-76
2023/08/24 08:41:21;;;;;;;8.27;4.35;;;30.40;70.90;;;;;;6250778;23;20000;-76
2023/08/24 08:43:48;;;;;;;8.55;4.53;;;30.70;71.30;;;;;;6251524;23;20447;-76
2023/08/24 08:46:15;;;;;;;11.10;4.10;;;31.10;69.70;;;;;;6251688;23;20000;-76
2023/08/24 08:48:41;;;;;;;7.30;4.30;;;30.50;71.10;;;;;;6250144;23;19997;-76
2023/08/24 08:51:08;;;;;;;6.32;4.38;;;30.40;71.40;;;;;;6251108;23;20290;-76
2023/08/24 08:53:34;;;;;;;8.43;4.32;;;30.50;70.70;;;;;;6250728;23;20007;-76
2023/08/24 08:56:04;;;;;;;10.23;4.13;;;30.20;71.20;;;;;;6251449;23;20000;-76
2023/08/24 08:58:31;;;;;;;9.32;4.45;;;30.00;71.90;;;;;;6251361;23;20036;-76
2023/08/24 09:00:59;;;;;;;9.93;4.10;;;29.70;72.50;;;;;;6249844;23;20004;-76
2023/08/24 09:03:28;;;;;;;7.03;4.30;;;29.80;73.10;;;;;;6249728;23;20773;-76
2023/08/24 09:05:53;;;;;;;8.63;4.43;;;30.30;72.40;;;;;;6249200;23;20054;-76
2023/08/24 09:08:21;;;;;;;8.23;4.10;;;30.40;72.50;;;;;;6250856;23;20012;-76
2023/08/24 09:10:47;;;;;;;8.95;3.90;;;30.90;72.30;;;;;;6250074;23;20000;-76
2023/08/24 09:13:16;;;;;;;10.18;4.22;;;31.30;71.50;;;;;;6250982;23;20366;-76
2023/08/24 09:15:43;;;;;;;8.43;4.38;;;31.70;71.40;;;;;;6250933;23;20000;-76
2023/08/24 09:18:08;;;;;;;7.57;4.40;;;31.90;70.60;;;;;;6248919;23;20382;-76
2023/08/24 09:20:34;;;;;;;7.93;4.28;;;32.00;70.80;;;;;;6250491;23;19996;-76
2023/08/24 09:23:00;;;;;;;15.73;4.60;;;32.40;70.10;;;;;;6251186;23;20001;-76
2023/08/24 09:25:26;;;;;;;12.50;4.25;;;32.50;69.80;;;;;;6251263;23;20004;-76
2023/08/24 09:28:04;;;;;;;7.82;3.85;;;32.70;69.60;;;;;;6251333;23;20293;-76
2023/08/24 09:30:37;;;;;;;6.22;3.85;;;33.30;68.90;;;;;;6250393;23;20004;-76
2023/08/24 09:33:10;;;;;;;11.00;4.20;;;33.80;68.30;;;;;;6251133;23;20075;-76
2023/08/24 09:35:36;;;;;;;8.05;3.92;;;33.90;67.60;;;;;;6251072;23;20004;-76
2023/08/24 09:38:17;;;;;;;10.52;4.45;;;33.90;67.60;;;;;;6251264;23;20007;-77
2023/08/24 09:40:47;;;;;;;7.20;4.32;;;33.60;69.00;;;;;;6250972;23;20011;-77
2023/08/24 09:43:13;;;;;;;10.90;4.38;;;33.60;69.10;;;;;;6249156;23;20353;-77
2023/08/24 09:45:56;;;;;;;9.02;4.25;;;33.40;67.90;;;;;;6224369;23;20007;-76
2023/08/24 09:48:23;;;;;;;9.80;4.13;;;33.80;67.40;;;;;;6250134;23;20107;-75
2023/08/24 09:50:51;;;;;;;9.90;4.43;;;34.40;67.80;;;;;;6250510;23;20312;-75
2023/08/24 09:53:22;;;;;;;8.82;4.30;;;34.90;66.30;;;;;;6250771;23;20031;-75
2023/08/24 09:56:00;;;;;;;6.93;3.90;;;34.80;66.50;;;;;;6251297;23;20177;-75
2023/08/24 09:58:27;;;;;;;11.27;4.40;;;34.80;66.60;;;;;;6250830;23;20012;-76
2023/08/24 10:00:55;;;;;;;9.98;4.35;;;34.60;65.90;;;;;;6250622;23;20078;-76
2023/08/24 10:03:25;;;;;;;12.50;4.55;;;34.20;66.80;;;;;;6249233;23;20051;-77
2023/08/24 10:05:58;;;;;;;9.98;3.92;;;34.20;66.70;;;;;;6250932;23;20004;-77
2023/08/24 10:08:29;;;;;;;8.90;4.20;;;33.80;67.60;;;;;;6251020;23;20004;-77
2023/08/24 10:10:58;;;;;;;6.00;3.72;;;34.20;67.30;;;;;;6250493;23;20293;-76
2023/08/24 10:13:34;;;;;;;9.60;3.67;;;34.60;66.70;;;;;;6251259;23;20030;-77
2023/08/24 10:16:00;;;;;;;7.15;3.47;;;34.80;66.10;;;;;;6250873;23;20015;-76
2023/08/24 10:18:27;;;;;;;7.75;3.88;;;34.60;66.60;;;;;;6222805;23;20273;-76
2023/08/24 10:20:53;;;;;;;11.88;4.28;;;34.40;66.40;;;;;;6250414;23;20027;-76
2023/08/24 10:23:19;;;;;;;12.32;4.63;;;33.80;67.50;;;;;;6250861;23;20008;-76
2023/08/24 10:25:46;;;;;;;8.10;3.78;;;33.60;68.50;;;;;;6250874;23;20389;-76
2023/08/24 10:28:13;;;;;;;8.23;3.83;;;33.70;68.60;;;;;;6250341;23;20049;-76
2023/08/24 10:30:39;;;;;;;6.95;4.57;;;34.00;67.50;;;;;;6250777;23;20011;-76
2023/08/24 10:33:06;;;;;;;8.48;4.47;;;34.50;67.00;;;;;;6250146;23;20011;-76
2023/08/24 10:35:32;;;;;;;8.27;4.50;;;34.70;66.40;;;;;;6250323;23;20011;-76
2023/08/24 10:37:59;;;;;;;10.25;4.50;;;35.00;66.60;;;;;;6250178;23;20358;-76
2023/08/24 10:40:43;;;;;;;9.52;4.07;;;35.10;66.50;;;;;;6250701;23;20020;-76
2023/08/24 10:43:09;;;;;;;10.90;4.40;;;35.30;65.60;;;;;;6250926;23;20262;-77
2023/08/24 10:45:54;;;;;;;9.10;4.30;;;36.00;65.30;;;;;;6250762;23;20004;-77
2023/08/24 10:48:19;;;;;;;7.88;4.00;;;36.40;64.00;;;;;;6248758;23;20004;-77
2023/08/24 10:51:14;;;;;;;10.63;4.13;;;36.30;64.50;;;;;;6250575;23;20010;-77
2023/08/24 10:53:41;;;;;;;10.95;4.10;;;36.40;64.70;;;;;;6250291;23;20000;-76
2023/08/24 10:56:11;;;;;;;10.98;4.53;;;36.50;64.40;;;;;;6250620;23;20103;-77
2023/08/24 10:58:37;;;;;;;13.80;4.68;;;36.70;62.90;;;;;;6250021;23;20019;-77
2023/08/24 11:01:02;;;;;;;8.23;3.90;;;37.00;62.30;;;;;;6223562;23;20357;-77
2023/08/24 11:03:35;;;;;;;12.35;4.68;;;37.50;62.90;;;;;;6248873;23;20322;-77
2023/08/24 11:06:00;;;;;;;10.13;4.25;;;37.50;62.00;;;;;;6250482;23;20316;-77
2023/08/24 11:08:45;;;;;;;9.75;4.60;;;37.20;62.80;;;;;;6247473;23;20004;-77
2023/08/24 11:11:27;;;;;;;7.85;4.43;;;36.40;64.30;;;;;;6249147;23;20009;-76
2023/08/24 11:14:33;;;;;;;11.48;5.15;;;35.30;65.80;;;;;;6249842;23;20004;-77
2023/08/24 11:17:18;;;;;;;8.45;4.60;;;34.70;66.70;;;;;;6249916;23;20075;-77
2023/08/24 11:19:51;;;;;;;11.65;4.72;;;33.70;68.80;;;;;;6249127;23;20257;-77
2023/08/24 11:22:18;;;;;;;9.80;5.00;;;33.20;70.20;;;;;;6249351;23;20251;-76
2023/08/24 11:24:44;;;;;;;8.75;4.88;;;33.30;71.30;;;;;;6249832;23;20007;-77
2023/08/24 11:27:09;;;;;;;18.73;5.13;;;33.60;70.40;;;;;;6250286;23;20004;-76
2023/08/24 11:29:35;;;;;;;12.40;4.88;;;34.10;69.70;;;;;;6249200;23;20004;-77
2023/08/24 11:32:01;;;;;;;9.23;4.60;;;34.50;69.00;;;;;;6248035;23;20343;-76
2023/08/24 11:34:27;;;;;;;8.07;4.40;;;35.20;67.60;;;;;;6221853;23;20003;-77
2023/08/24 11:36:53;;;;;;;10.50;4.65;;;35.50;66.80;;;;;;6250003;23;20004;-77
2023/08/24 11:39:21;;;;;;;9.73;4.50;;;36.00;66.40;;;;;;6249132;23;19996;-77
2023/08/24 11:42:09;;;;;;;7.43;4.40;;;36.50;64.70;;;;;;6249935;23;20000;-77
2023/08/24 11:44:47;;;;;;;8.95;4.20;;;36.80;64.10;;;;;;6249806;23;20000;-77
2023/08/24 11:47:13;;;;;;;8.73;4.75;;;37.10;63.80;;;;;;6250132;23;20266;-77
2023/08/24 11:49:38;;;;;;;10.38;4.90;;;36.70;63.10;;;;;;6248399;23;20004;-77
2023/08/24 11:52:04;;;;;;;8.35;4.35;;;36.00;65.00;;;;;;6249611;23;20008;-77
2023/08/24 11:54:32;;;;;;;9.60;4.60;;;35.90;65.10;;;;;;6249273;23;20074;-76
2023/08/24 11:56:58;;;;;;;8.15;4.45;;;36.20;64.00;;;;;;6249495;23;20022;-77
2023/08/24 11:59:25;;;;;;;11.73;4.35;;;36.80;64.30;;;;;;6249494;23;20046;-77
2023/08/24 12:01:52;;;;;;;11.77;4.15;;;37.10;62.80;;;;;;6249757;23;20239;-76
2023/08/24 12:04:18;;;;;;;8.80;4.28;;;37.40;62.30;;;;;;6247751;23;20014;-77
2023/08/24 12:06:44;;;;;;;14.70;4.65;;;37.70;62.10;;;;;;6249484;23;20067;-77
2023/08/24 12:09:10;;;;;;;12.10;4.70;;;37.60;57.90;;;;;;6222273;23;20036;-77
2023/08/24 12:11:37;;;;;;;16.23;5.10;;;36.80;59.50;;;;;;6249927;23;20008;-77
2023/08/24 12:14:03;;;;;;;11.25;4.75;;;36.90;59.50;;;;;;6249059;23;20032;-77
2023/08/24 12:16:32;;;;;;;16.55;5.20;;;37.30;59.60;;;;;;6249473;23;20261;-77
2023/08/24 12:19:02;;;;;;;10.93;4.68;;;36.70;60.20;;;;;;6248105;23;20004;-77
2023/08/24 12:21:31;;;;;;;13.82;4.45;;;36.80;60.50;;;;;;6249858;23;20000;-77
2023/08/24 12:24:09;;;;;;;15.32;5.03;;;36.90;61.50;;;;;;6249516;23;20003;-77
2023/08/24 12:26:35;;;;;;;12.07;4.57;;;37.00;61.10;;;;;;6249336;23;20038;-77
2023/08/24 12:29:05;;;;;;;22.65;5.00;;;37.60;59.30;;;;;;6249659;23;20027;-77
2023/08/24 12:31:30;;;;;;;15.60;4.55;;;37.80;57.20;;;;;;6248874;23;20028;-77
2023/08/24 12:34:08;;;;;;;11.63;4.88;;;37.50;58.90;;;;;;6247411;23;20004;-77
2023/08/24 12:36:36;;;;;;;15.80;4.30;;;37.40;58.40;;;;;;6249835;23;19996;-77
2023/08/24 12:39:07;;;;;;;14.70;4.75;;;37.80;58.30;;;;;;6248809;23;20431;-77
2023/08/24 12:41:33;;;;;;;13.38;4.60;;;38.20;57.80;;;;;;6223942;23;20031;-75